Terminal Aerodrome Forecast
Issued by NWS

Home | Current Version | Previous Version | Text Only | Print | Product List | Glossary On
Versions: 1 2 3 4 5 6 7 8 9 10 11
076
FTUS46 KSTO 261739
TAFRDD
TAF
KRDD 261739Z 2618/2718 19010KT P6SM SCT015 OVC025
      TEMPO 2618/2619 4SM -RA BR FEW009 OVC015
     FM262000 15015KT P6SM VCSH OVC025
      TEMPO 2620/2624 4SM SHRA OVC015
     FM270300 VRB05KT P6SM SCT020 BKN100
     FM271200 35002KT P6SM BKN150=

USA.gov is the U.S. government's official web portal to all federal, state and local government web resources and services.